Lakeshore, CA

9:34 PM PDT on October 24, 2014 (GMT -0700)
RAWS HIGH SIERRA CA US | Change Station
CLOSE
Current Station
Personal Weather Station
Location: Mono Hot Springs, CA
Elevation: 7431 ft
Nearby Weather Stations

Elev 7431 ft 37.31 °N, 119.04 °W | Updated 43 minutes ago

Clear
Clear
49 °F
Feels Like 49 °F
N
3
Wind Variable Wind from SSW
Gusts 8.0 mph

Today
High -- | Low -- °F
--% Chance of Precip.
Yesterday
High -- | Low -- °F
Precip. -- in
7:13 AM 6:07 PM
New Moon, 2% visible
Pressure 30.18 in
Visibility 10.0 miles
Clouds Clear
Windchill 49 °F
Dew Point 13 °F
Humidity 23%
Rainfall 0.00 in
Snow Depth Not available.
UV 0 out of 12
Pollen 2.30 out of 12
Air Quality Not available.
Flu Activity Sporadic
METAR KMMH 250415Z AUTO 00000KT 10SM CLR 07/M11 A3018 RMK AO1

More Conditions Fewer Conditions

Pressure 30.18 in
Visibility 10.0 miles
Clouds Clear
Windchill 49 °F
Dew Point 13 °F
Humidity 23%
Rainfall 0.00 in
Snow Depth Not available.
UV 0 out of 12
Pollen 2.30 out of 12
Air Quality Not available.
Flu Activity Sporadic
METAR KMMH 250415Z AUTO 00000KT 10SM CLR 07/M11 A3018 RMK AO1

More Conditions Fewer Conditions

10-Day Weather Forecast

Almanac

Astronomy

Oct. 24, 2014 Rise Set
Actual Time 7:13 AM PDT 6:07 PM PDT
Civil Twilight 6:46 AM PDT 6:34 PM PDT
Nautical Twilight 6:16 AM PDT 7:04 PM PDT
Astronomical Twilight 5:45 AM PDT 7:35 PM PDT
Moon 7:56 AM PDT (10/24) 6:52 PM PDT (10/24)
Length of Visible Light 11h 47m
Length of Day
10h 54m
Tomorrow will be 2m 12s shorter.
New Moon, 2% of the Moon is Illuminated
Oct 25
New Moon
Oct 30
First Quarter
Nov 6
Full
Nov 14
Last Quarter
Nov 22
New

Yesterday's Extremes

State Highs State Lows

Community

WunderPhotos

Upload Photos

1,764,782 photos uploaded!

Nearby

Snow Depth

Station Depth Elevation
Virginia Lakes Ridge 0 in 9200 ft
Leavitt Lake 1 in 9400 ft
Leavitt Meadows 0 in 7200 ft
Sonora Pass 0 in 8800 ft
Summit Meadow 1 in 9122 ft

Earthquake Activity

City Distance Mag. Time & Date
Kettleman City, California 102 miles 2.5 9:08 AM PDT
2014-10-22
Minimum magnitude displayed is 2.5.

Coastal Water Temperatures

Place Temperature
No Stations Reporting

Nearby Weather Stations